createdAt,value
2022-11-30T00:01:30.520Z,13.27
2022-11-30T00:03:57.821Z,14.15
2022-11-30T00:06:25.034Z,16.17
2022-11-30T00:08:58.387Z,13.55
2022-11-30T00:11:26.882Z,13.95
2022-11-30T00:13:54.196Z,13.82
2022-11-30T00:16:22.139Z,14.02
2022-11-30T00:18:50.410Z,13.85
2022-11-30T00:21:17.618Z,13.07
2022-11-30T00:23:45.987Z,14.10
2022-11-30T00:26:15.462Z,12.50
2022-11-30T00:28:43.282Z,12.23
2022-11-30T00:31:15.344Z,13.07
2022-11-30T00:33:42.632Z,13.32
2022-11-30T00:36:14.940Z,12.35
2022-11-30T00:38:42.922Z,11.98
2022-11-30T00:41:10.222Z,12.82
2022-11-30T00:43:37.437Z,12.63
2022-11-30T00:46:05.001Z,13.27
2022-11-30T00:48:32.101Z,12.05
2022-11-30T00:50:59.169Z,11.20
2022-11-30T00:53:26.506Z,11.32
2022-11-30T00:55:53.630Z,12.07
2022-11-30T00:58:20.636Z,12.55
2022-11-30T01:00:48.291Z,12.52
2022-11-30T01:03:15.409Z,11.70
2022-11-30T01:05:43.461Z,12.30
2022-11-30T01:08:11.274Z,12.02
2022-11-30T01:10:39.590Z,13.38
2022-11-30T01:13:06.816Z,11.75
2022-11-30T01:15:42.052Z,13.23
2022-11-30T01:18:09.298Z,12.52
2022-11-30T01:20:37.589Z,12.73
2022-11-30T01:23:04.898Z,12.48
2022-11-30T01:25:32.137Z,11.50
2022-11-30T01:27:59.237Z,11.60
2022-11-30T01:30:26.672Z,11.43
2022-11-30T01:32:54.102Z,12.30
2022-11-30T01:35:21.121Z,12.15
2022-11-30T01:37:48.399Z,12.15
2022-11-30T01:40:15.597Z,12.60
2022-11-30T01:42:49.002Z,12.63
2022-11-30T01:45:16.280Z,11.73
2022-11-30T01:47:48.200Z,12.35
2022-11-30T01:50:24.331Z,11.07
2022-11-30T01:52:52.322Z,11.18
2022-11-30T01:55:20.930Z,11.40
2022-11-30T01:57:56.619Z,12.10
2022-11-30T02:00:23.886Z,12.60
2022-11-30T02:03:10.793Z,10.73
2022-11-30T02:05:39.742Z,10.98
2022-11-30T02:08:07.765Z,11.02
2022-11-30T02:10:47.297Z,9.98
2022-11-30T02:13:23.353Z,11.23
2022-11-30T02:16:16.108Z,10.77
2022-11-30T02:19:10.002Z,10.30
2022-11-30T02:22:07.488Z,10.65
2022-11-30T02:24:55.655Z,11.00
2022-11-30T02:27:44.778Z,10.95
2022-11-30T02:30:16.589Z,11.23
2022-11-30T02:33:17.268Z,10.00
2022-11-30T02:38:12.255Z,10.25
2022-11-30T02:40:39.519Z,10.25
2022-11-30T02:43:07.085Z,10.35
2022-11-30T02:46:08.953Z,10.75
2022-11-30T02:48:44.143Z,10.55
2022-11-30T02:51:12.710Z,8.95
2022-11-30T02:53:39.772Z,10.25
2022-11-30T02:56:06.906Z,8.65
2022-11-30T02:58:34.785Z,10.18
2022-11-30T03:01:01.874Z,9.93
2022-11-30T03:03:29.022Z,10.35
2022-11-30T03:05:56.426Z,10.57
2022-11-30T03:08:23.677Z,8.98
2022-11-30T03:10:50.726Z,10.32
2022-11-30T03:13:17.986Z,9.30
2022-11-30T03:15:45.164Z,9.07
2022-11-30T03:18:12.277Z,10.25
2022-11-30T03:20:42.879Z,9.88
2022-11-30T03:23:10.697Z,9.40
2022-11-30T03:25:39.771Z,9.95
2022-11-30T03:28:07.225Z,9.98
2022-11-30T03:30:34.287Z,9.13
2022-11-30T03:33:01.504Z,9.63
2022-11-30T03:35:28.810Z,9.63
2022-11-30T03:37:55.926Z,10.25
2022-11-30T03:40:22.977Z,9.13
2022-11-30T03:42:51.006Z,10.05
2022-11-30T03:45:19.481Z,9.30
2022-11-30T03:47:47.575Z,8.93
2022-11-30T03:50:19.087Z,11.02
2022-11-30T03:52:46.611Z,10.00
2022-11-30T03:55:14.719Z,9.93
2022-11-30T03:57:43.842Z,10.57
2022-11-30T04:00:11.863Z,10.38
2022-11-30T04:02:44.888Z,10.40
2022-11-30T04:05:12.649Z,11.02
2022-11-30T04:07:39.721Z,11.32
2022-11-30T04:10:08.801Z,11.02
2022-11-30T04:12:36.456Z,11.10
2022-11-30T04:15:03.701Z,12.27
2022-11-30T04:17:30.802Z,10.35
2022-11-30T04:19:58.075Z,10.50
2022-11-30T04:22:25.157Z,10.38
2022-11-30T04:24:52.200Z,9.20
2022-11-30T04:27:19.624Z,9.57
2022-11-30T04:29:46.787Z,10.57
2022-11-30T04:32:13.822Z,9.93
2022-11-30T04:34:41.081Z,10.27
2022-11-30T04:37:08.169Z,9.40
2022-11-30T04:39:35.871Z,9.23
2022-11-30T04:42:03.126Z,10.60
2022-11-30T04:44:30.178Z,9.95
2022-11-30T04:46:57.323Z,10.52
2022-11-30T04:49:24.642Z,10.52
2022-11-30T04:51:51.745Z,10.70
2022-11-30T04:54:18.876Z,11.32
2022-11-30T04:56:46.169Z,11.15
2022-11-30T04:59:13.407Z,9.82
2022-11-30T05:01:40.701Z,9.52
2022-11-30T05:04:08.207Z,9.98
2022-11-30T05:06:35.634Z,9.95
2022-11-30T05:09:02.628Z,10.63
2022-11-30T05:11:29.953Z,9.65
2022-11-30T05:13:57.007Z,10.50
2022-11-30T05:16:26.650Z,9.70
2022-11-30T05:18:54.052Z,11.30
2022-11-30T05:21:21.159Z,9.25
2022-11-30T05:23:48.885Z,10.82
2022-11-30T05:26:16.364Z,9.82
2022-11-30T05:28:43.431Z,12.77
2022-11-30T05:31:10.713Z,10.77
2022-11-30T05:33:37.933Z,11.88
2022-11-30T05:36:10.402Z,10.45
2022-11-30T05:38:38.078Z,11.63
2022-11-30T05:41:06.101Z,11.00
2022-11-30T05:43:36.660Z,10.35
2022-11-30T05:46:04.822Z,11.40
2022-11-30T05:48:32.350Z,10.60
2022-11-30T05:51:07.337Z,9.85
2022-11-30T05:53:34.777Z,11.77
2022-11-30T05:56:11.812Z,11.85
2022-11-30T05:58:39.058Z,10.57
2022-11-30T06:01:06.246Z,10.77
2022-11-30T06:03:34.130Z,10.75
2022-11-30T06:06:01.864Z,10.57
2022-11-30T06:08:28.970Z,10.10
2022-11-30T06:11:00.568Z,11.18
2022-11-30T06:13:29.082Z,9.90
2022-11-30T06:16:01.863Z,11.27
2022-11-30T06:18:29.035Z,11.20
2022-11-30T06:21:03.266Z,9.53
2022-11-30T06:23:30.739Z,9.43
2022-11-30T06:25:57.891Z,11.00
2022-11-30T06:28:25.190Z,9.18
2022-11-30T06:30:52.535Z,9.88
2022-11-30T06:33:23.266Z,10.02
2022-11-30T06:35:50.346Z,9.60
2022-11-30T06:38:17.932Z,9.13
2022-11-30T06:40:45.294Z,9.50
2022-11-30T06:43:12.582Z,10.90
2022-11-30T06:45:46.090Z,10.60
2022-11-30T06:48:16.637Z,9.20
2022-11-30T06:50:49.708Z,10.25
2022-11-30T06:53:17.222Z,10.88
2022-11-30T06:55:44.259Z,9.98
2022-11-30T06:58:12.110Z,10.27
2022-11-30T07:00:39.277Z,10.40
2022-11-30T07:03:06.473Z,9.60
2022-11-30T07:05:44.226Z,10.98
2022-11-30T07:08:12.405Z,10.45
2022-11-30T07:10:49.176Z,9.60
2022-11-30T07:13:17.802Z,10.23
2022-11-30T07:15:45.129Z,11.47
2022-11-30T07:18:12.385Z,9.93
2022-11-30T07:20:39.845Z,10.75
2022-11-30T07:23:25.968Z,10.77
2022-11-30T07:26:09.722Z,10.65
2022-11-30T07:28:51.548Z,9.38
2022-11-30T07:31:21.345Z,9.40
2022-11-30T07:33:49.225Z,9.45
2022-11-30T07:36:17.598Z,9.70
2022-11-30T07:38:44.880Z,9.77
2022-11-30T07:41:12.292Z,10.18
2022-11-30T07:43:39.455Z,9.40
2022-11-30T07:46:06.708Z,10.07
2022-11-30T07:48:34.288Z,9.70
2022-11-30T07:51:06.541Z,10.05
2022-11-30T07:53:33.645Z,10.32
2022-11-30T07:56:08.539Z,10.20
2022-11-30T07:58:36.671Z,10.40
2022-11-30T08:01:08.625Z,9.57
2022-11-30T08:03:37.423Z,58.80
2022-11-30T08:06:07.413Z,10.35
2022-11-30T08:08:36.073Z,9.85
2022-11-30T08:11:03.660Z,9.65
2022-11-30T08:13:30.890Z,9.93
2022-11-30T08:16:05.031Z,10.95
2022-11-30T08:18:32.086Z,10.20
2022-11-30T08:21:06.791Z,10.50
2022-11-30T08:23:36.222Z,10.55
2022-11-30T08:26:16.742Z,9.73
2022-11-30T08:28:44.376Z,10.35
2022-11-30T08:31:13.981Z,9.85
2022-11-30T08:33:41.453Z,9.38
2022-11-30T08:36:13.363Z,9.45
2022-11-30T08:38:41.297Z,11.85
2022-11-30T08:41:09.099Z,8.57
2022-11-30T08:43:36.796Z,9.43
2022-11-30T08:46:21.214Z,8.40
2022-11-30T08:49:02.357Z,9.20
2022-11-30T08:52:08.867Z,8.57
2022-11-30T08:54:27.782Z,8.52
2022-11-30T08:57:02.755Z,8.15
2022-11-30T08:59:51.004Z,7.13
2022-11-30T09:02:57.277Z,7.70
2022-11-30T09:05:45.887Z,8.63
2022-11-30T09:08:24.473Z,7.57
2022-11-30T09:11:00.664Z,8.00
2022-11-30T09:13:36.164Z,7.78
2022-11-30T09:16:08.388Z,9.02
2022-11-30T09:18:51.860Z,7.45
2022-11-30T09:21:31.211Z,7.05
2022-11-30T09:24:12.365Z,7.70
2022-11-30T09:26:49.374Z,6.45
2022-11-30T09:29:24.652Z,6.90
2022-11-30T09:31:57.568Z,6.05
2022-11-30T09:34:40.754Z,6.35
2022-11-30T09:37:10.446Z,6.35
2022-11-30T09:39:37.712Z,6.30
2022-11-30T09:42:39.670Z,6.47
2022-11-30T09:45:20.745Z,6.90
2022-11-30T09:47:54.449Z,6.57
2022-11-30T09:50:23.282Z,7.40
2022-11-30T09:52:53.056Z,6.70
2022-11-30T09:55:31.207Z,7.55
2022-11-30T09:58:03.461Z,6.07
2022-11-30T10:00:30.943Z,7.05
2022-11-30T10:03:05.242Z,7.38
2022-11-30T10:05:51.402Z,7.80
2022-11-30T10:08:47.431Z,7.03
2022-11-30T10:11:42.865Z,7.75
2022-11-30T10:14:41.199Z,8.45
2022-11-30T10:17:24.852Z,7.72
2022-11-30T10:20:31.171Z,7.28
2022-11-30T10:23:16.869Z,7.90
2022-11-30T10:26:33.635Z,8.13
2022-11-30T10:30:00.517Z,7.93
2022-11-30T10:33:14.942Z,6.82
2022-11-30T10:36:09.716Z,7.20
2022-11-30T10:39:13.064Z,7.65
2022-11-30T10:42:14.280Z,8.18
2022-11-30T10:45:21.380Z,7.03
2022-11-30T10:48:25.757Z,6.75
2022-11-30T10:50:59.220Z,7.40
2022-11-30T10:53:40.444Z,6.07
2022-11-30T10:56:11.108Z,5.85
2022-11-30T10:59:04.925Z,6.22
2022-11-30T11:01:42.331Z,6.10
2022-11-30T11:04:26.932Z,5.77
2022-11-30T11:07:13.803Z,6.25
2022-11-30T11:09:42.806Z,6.30
2022-11-30T11:12:21.696Z,6.35
2022-11-30T11:14:49.102Z,6.18
2022-11-30T11:17:19.384Z,6.82
2022-11-30T11:19:51.574Z,7.63
2022-11-30T11:22:23.490Z,6.93
2022-11-30T11:25:28.894Z,6.15
2022-11-30T11:27:59.339Z,6.13
2022-11-30T11:30:27.146Z,7.18
2022-11-30T11:33:02.375Z,6.82
2022-11-30T11:35:51.943Z,6.18
2022-11-30T11:38:28.695Z,6.13
2022-11-30T11:41:26.865Z,7.72
2022-11-30T11:44:10.180Z,6.65
2022-11-30T11:47:02.678Z,8.23
2022-11-30T11:49:38.880Z,5.68
2022-11-30T11:52:15.440Z,7.20
2022-11-30T11:55:04.533Z,6.65
2022-11-30T11:57:47.996Z,6.78
2022-11-30T12:00:22.199Z,6.63
2022-11-30T12:03:12.256Z,6.03
2022-11-30T12:08:38.854Z,5.50
2022-11-30T12:11:16.529Z,6.35
2022-11-30T12:13:44.504Z,6.50
2022-11-30T12:17:20.580Z,6.88
2022-11-30T12:19:49.954Z,6.05
2022-11-30T12:22:46.157Z,6.00
2022-11-30T12:25:29.806Z,6.13
2022-11-30T12:28:20.098Z,7.15
2022-11-30T12:31:13.523Z,6.40
2022-11-30T12:34:04.871Z,5.72
2022-11-30T12:37:20.528Z,6.95
2022-11-30T12:39:51.744Z,6.78
2022-11-30T12:42:27.537Z,6.63
2022-11-30T12:45:04.421Z,7.88
2022-11-30T12:47:49.984Z,6.55
2022-11-30T12:50:25.510Z,7.47
2022-11-30T12:53:02.849Z,8.30
2022-11-30T12:55:59.946Z,7.65
2022-11-30T12:58:40.308Z,8.32
2022-11-30T13:01:13.560Z,5.97
2022-11-30T13:03:53.797Z,6.40
2022-11-30T13:06:32.438Z,7.63
2022-11-30T13:09:23.742Z,6.35
2022-11-30T13:12:41.107Z,7.13
2022-11-30T13:15:24.908Z,7.10
2022-11-30T13:17:52.573Z,7.22
2022-11-30T13:20:29.447Z,7.80
2022-11-30T13:22:59.734Z,8.98
2022-11-30T13:26:07.278Z,8.25
2022-11-30T13:28:40.833Z,8.07
2022-11-30T13:31:29.012Z,9.82
2022-11-30T13:33:56.234Z,8.63
2022-11-30T13:36:42.209Z,8.73
2022-11-30T13:39:15.608Z,8.27
2022-11-30T13:41:47.314Z,8.48
2022-11-30T13:44:32.448Z,7.15
2022-11-30T13:47:31.147Z,7.68
2022-11-30T13:50:06.207Z,7.30
2022-11-30T13:52:58.857Z,9.70
2022-11-30T13:55:52.581Z,7.88
2022-11-30T13:58:20.553Z,7.57
2022-11-30T14:01:24.439Z,7.82
2022-11-30T14:04:28.445Z,7.32
2022-11-30T14:06:57.254Z,8.07
2022-11-30T14:09:44.111Z,7.95
2022-11-30T14:12:33.070Z,8.02
2022-11-30T14:15:01.043Z,7.22
2022-11-30T14:17:37.661Z,7.50
2022-11-30T14:20:18.144Z,7.22
2022-11-30T14:25:13.491Z,8.25
2022-11-30T14:27:40.763Z,9.00
2022-11-30T14:30:18.806Z,7.72
2022-11-30T14:33:02.567Z,7.40
2022-11-30T14:35:30.732Z,7.68
2022-11-30T14:37:58.801Z,7.97
2022-11-30T14:40:31.515Z,8.57
2022-11-30T14:43:00.766Z,7.80
2022-11-30T14:45:32.798Z,7.22
2022-11-30T14:48:12.019Z,7.85
2022-11-30T14:50:47.066Z,8.20
2022-11-30T14:53:41.708Z,8.00
2022-11-30T14:56:20.824Z,7.97
2022-11-30T14:58:51.805Z,7.50
2022-11-30T15:01:30.058Z,8.68
2022-11-30T15:04:00.704Z,8.90
2022-11-30T15:06:31.624Z,8.10
2022-11-30T15:09:10.742Z,8.32
2022-11-30T15:11:44.728Z,8.45
2022-11-30T15:14:14.357Z,8.80
2022-11-30T15:16:55.816Z,8.43
2022-11-30T15:19:31.019Z,8.85
2022-11-30T15:21:59.272Z,8.20
2022-11-30T15:24:29.776Z,8.68
2022-11-30T15:27:11.319Z,8.77
2022-11-30T15:29:45.648Z,8.15
2022-11-30T15:32:18.101Z,8.07
2022-11-30T15:34:56.526Z,8.63
2022-11-30T15:37:38.967Z,9.23
2022-11-30T15:40:08.458Z,9.27
2022-11-30T15:42:40.814Z,8.60
2022-11-30T15:45:24.845Z,8.70
2022-11-30T15:47:52.971Z,8.52
2022-11-30T15:50:38.555Z,9.55
2022-11-30T15:53:27.458Z,9.43
2022-11-30T15:56:07.780Z,9.13
2022-11-30T15:58:46.411Z,9.45
2022-11-30T16:01:22.556Z,8.85
2022-11-30T16:03:56.198Z,9.20
2022-11-30T16:06:23.751Z,9.07
2022-11-30T16:08:50.960Z,9.80
2022-11-30T16:11:18.714Z,8.95
2022-11-30T16:13:47.799Z,9.27
2022-11-30T16:16:22.283Z,9.53
2022-11-30T16:18:50.079Z,9.53
2022-11-30T16:21:18.918Z,9.15
2022-11-30T16:23:46.445Z,8.83
2022-11-30T16:26:43.059Z,9.88
2022-11-30T16:29:04.774Z,8.93
2022-11-30T16:31:32.038Z,10.55
2022-11-30T16:34:01.688Z,10.65
2022-11-30T16:36:30.430Z,11.63
2022-11-30T16:38:58.005Z,13.03
2022-11-30T16:41:28.614Z,12.60
2022-11-30T16:46:27.769Z,12.33
2022-11-30T16:48:55.183Z,13.63
2022-11-30T16:51:28.844Z,12.73
2022-11-30T16:53:55.931Z,11.47
2022-11-30T16:56:23.219Z,12.07
2022-11-30T16:58:50.373Z,12.60
2022-11-30T17:01:20.366Z,11.93
2022-11-30T17:03:51.534Z,11.70
2022-11-30T17:06:20.369Z,11.80
2022-11-30T17:08:48.798Z,11.70
2022-11-30T17:11:25.543Z,11.63
2022-11-30T17:13:52.744Z,11.07
2022-11-30T17:16:19.875Z,11.53
2022-11-30T17:18:47.046Z,11.23
2022-11-30T17:21:19.538Z,11.90
2022-11-30T17:23:46.567Z,11.53
2022-11-30T17:26:14.202Z,13.27
2022-11-30T17:28:42.615Z,12.43
2022-11-30T17:31:11.095Z,14.03
2022-11-30T17:33:41.290Z,14.07
2022-11-30T17:36:11.887Z,14.03
2022-11-30T17:38:39.445Z,12.80
2022-11-30T17:41:14.217Z,13.43
2022-11-30T17:43:44.548Z,13.00
2022-11-30T17:46:13.201Z,13.63
2022-11-30T17:48:40.289Z,12.68
2022-11-30T17:51:07.717Z,12.75
2022-11-30T17:53:36.834Z,13.93
2022-11-30T17:56:14.685Z,13.57
2022-11-30T17:58:44.146Z,14.17
2022-11-30T18:01:24.634Z,13.15
2022-11-30T18:03:51.954Z,13.57
2022-11-30T18:06:19.335Z,13.33
2022-11-30T18:08:46.628Z,13.00
2022-11-30T18:11:15.374Z,12.30
2022-11-30T18:13:42.502Z,13.88
2022-11-30T18:16:20.711Z,13.30
2022-11-30T18:18:48.854Z,13.50
2022-11-30T18:21:18.334Z,13.50
2022-11-30T18:23:45.970Z,13.48
2022-11-30T18:26:14.610Z,14.65
2022-11-30T18:28:44.678Z,15.40
2022-11-30T18:31:11.955Z,16.88
2022-11-30T18:33:39.347Z,14.80
2022-11-30T18:36:07.897Z,15.17
2022-11-30T18:38:38.151Z,14.50
2022-11-30T18:41:06.004Z,15.57
2022-11-30T18:43:34.057Z,13.65
2022-11-30T18:46:05.857Z,14.50
2022-11-30T18:48:33.026Z,14.07
2022-11-30T18:51:00.442Z,13.52
2022-11-30T18:53:27.711Z,12.70
2022-11-30T18:55:55.027Z,13.20
2022-11-30T18:58:22.019Z,13.07
2022-11-30T19:00:49.147Z,14.07
2022-11-30T19:03:16.246Z,13.05
2022-11-30T19:05:43.253Z,13.60
2022-11-30T19:08:14.065Z,13.02
2022-11-30T19:10:41.307Z,13.63
2022-11-30T19:13:08.347Z,14.68
2022-11-30T19:15:41.998Z,14.45
2022-11-30T19:18:10.120Z,11.88
2022-11-30T19:20:40.768Z,12.57
2022-11-30T19:23:10.739Z,12.95
2022-11-30T19:25:37.943Z,12.52
2022-11-30T19:28:05.296Z,12.93
2022-11-30T19:30:32.701Z,12.98
2022-11-30T19:32:59.742Z,14.13
2022-11-30T19:35:26.929Z,14.65
2022-11-30T19:37:54.241Z,13.93
2022-11-30T19:40:21.431Z,13.88
2022-11-30T19:42:48.570Z,14.20
2022-11-30T19:45:18.406Z,13.70
2022-11-30T19:47:45.401Z,13.70
2022-11-30T19:50:12.508Z,13.00
2022-11-30T19:52:39.959Z,14.53
2022-11-30T19:55:07.699Z,13.73
2022-11-30T19:57:37.896Z,13.20
2022-11-30T20:00:06.820Z,12.20
2022-11-30T20:02:39.867Z,13.73
2022-11-30T20:05:07.689Z,14.27
2022-11-30T20:07:36.571Z,14.63
2022-11-30T20:10:04.107Z,14.03
2022-11-30T20:12:31.796Z,13.00
2022-11-30T20:14:58.812Z,13.73
2022-11-30T20:17:25.856Z,12.47
2022-11-30T20:19:53.168Z,13.83
2022-11-30T20:22:20.303Z,13.77
2022-11-30T20:24:50.973Z,13.90
2022-11-30T20:27:22.752Z,12.47
2022-11-30T20:29:50.592Z,14.50
2022-11-30T20:32:17.806Z,13.57
2022-11-30T20:34:45.217Z,12.77
2022-11-30T20:37:12.567Z,14.47
2022-11-30T20:39:45.843Z,15.90
2022-11-30T20:42:13.636Z,14.73
2022-11-30T20:44:40.623Z,14.40
2022-11-30T20:47:07.723Z,15.37
2022-11-30T20:49:35.027Z,14.68
2022-11-30T20:52:02.071Z,14.40
2022-11-30T20:54:30.625Z,14.70
2022-11-30T20:56:59.081Z,14.85
2022-11-30T20:59:26.870Z,14.00
2022-11-30T21:01:54.935Z,14.35
2022-11-30T21:04:23.554Z,14.77
2022-11-30T21:06:50.644Z,14.70
2022-11-30T21:09:18.319Z,15.77
2022-11-30T21:16:11.054Z,16.10
2022-11-30T21:21:07.078Z,15.77
2022-11-30T21:23:34.591Z,16.02
2022-11-30T21:26:08.451Z,15.35
2022-11-30T21:28:38.218Z,15.88
2022-11-30T21:31:06.552Z,15.52
2022-11-30T21:33:33.693Z,16.35
2022-11-30T21:36:00.886Z,17.00
2022-11-30T21:38:28.067Z,17.27
2022-11-30T21:40:59.194Z,18.38
2022-11-30T21:43:27.243Z,18.27
2022-11-30T21:46:01.747Z,18.05
2022-11-30T21:48:29.722Z,19.55
2022-11-30T21:51:00.938Z,19.17
2022-11-30T21:53:29.215Z,20.30
2022-11-30T21:55:56.769Z,18.45
2022-11-30T21:58:24.130Z,17.73
2022-11-30T22:00:58.298Z,17.92
2022-11-30T22:03:25.558Z,17.90
2022-11-30T22:06:03.928Z,17.73
2022-11-30T22:08:31.730Z,16.90
2022-11-30T22:11:02.468Z,17.38
2022-11-30T22:13:30.344Z,16.42
2022-11-30T22:16:02.128Z,17.77
2022-11-30T22:18:29.404Z,16.63
2022-11-30T22:21:07.232Z,17.40
2022-11-30T22:23:34.840Z,17.13
2022-11-30T22:26:40.961Z,18.33
2022-11-30T22:29:12.112Z,16.10
2022-11-30T22:31:40.804Z,17.63
2022-11-30T22:34:10.472Z,18.52
2022-11-30T22:36:39.459Z,17.23
2022-11-30T22:39:11.554Z,18.63
2022-11-30T22:41:39.492Z,18.05
2022-11-30T22:44:06.649Z,18.00
2022-11-30T22:46:35.784Z,17.70
2022-11-30T22:49:04.547Z,18.63
2022-11-30T22:51:32.577Z,17.95
2022-11-30T22:53:59.770Z,19.95
2022-11-30T22:56:53.377Z,17.85
2022-11-30T22:59:20.700Z,17.30
2022-11-30T23:01:48.679Z,18.05
2022-11-30T23:04:17.305Z,17.88
2022-11-30T23:06:45.058Z,17.08
2022-11-30T23:09:14.819Z,17.60
2022-11-30T23:11:41.889Z,18.40
2022-11-30T23:14:09.778Z,17.95
2022-11-30T23:16:37.032Z,18.17
2022-11-30T23:19:04.538Z,17.85
2022-11-30T23:21:40.312Z,18.17
2022-11-30T23:24:09.034Z,16.65
2022-11-30T23:26:37.927Z,17.35
2022-11-30T23:29:07.209Z,17.23
2022-11-30T23:31:37.199Z,17.63
2022-11-30T23:34:09.548Z,16.45
2022-11-30T23:36:36.672Z,17.02
2022-11-30T23:39:05.918Z,17.30
2022-11-30T23:41:33.063Z,16.67
2022-11-30T23:44:00.224Z,16.58
2022-11-30T23:46:27.372Z,17.23
2022-11-30T23:48:55.940Z,17.33
2022-11-30T23:51:23.446Z,18.50
2022-11-30T23:53:50.516Z,18.02
2022-11-30T23:56:18.304Z,17.45
2022-11-30T23:58:45.616Z,17.88
